sensor_id;sensor_type;location;lat;lon;timestamp;P1;durP1;ratioP1;P2;durP2;ratioP2
47273;SDS011;33007;49.082;19.306;2022-10-26T00:02:25;19.15;;;7.07;;
47273;SDS011;33007;49.082;19.306;2022-10-26T00:04:50;15.52;;;6.18;;
47273;SDS011;33007;49.082;19.306;2022-10-26T00:07:16;16.33;;;7.60;;
47273;SDS011;33007;49.082;19.306;2022-10-26T00:09:41;11.65;;;5.72;;
47273;SDS011;33007;49.082;19.306;2022-10-26T00:12:07;13.55;;;6.45;;
47273;SDS011;33007;49.082;19.306;2022-10-26T00:14:33;13.25;;;5.88;;
47273;SDS011;33007;49.082;19.306;2022-10-26T00:16:58;14.35;;;6.25;;
47273;SDS011;33007;49.082;19.306;2022-10-26T00:19:24;10.93;;;6.40;;
47273;SDS011;33007;49.082;19.306;2022-10-26T00:21:50;10.68;;;5.60;;
47273;SDS011;33007;49.082;19.306;2022-10-26T00:24:16;10.68;;;5.88;;
47273;SDS011;33007;49.082;19.306;2022-10-26T00:26:42;11.40;;;5.32;;
47273;SDS011;33007;49.082;19.306;2022-10-26T00:29:08;11.45;;;5.30;;
47273;SDS011;33007;49.082;19.306;2022-10-26T00:31:35;9.13;;;5.45;;
47273;SDS011;33007;49.082;19.306;2022-10-26T00:34:01;9.02;;;5.45;;
47273;SDS011;33007;49.082;19.306;2022-10-26T00:36:26;11.40;;;5.05;;
47273;SDS011;33007;49.082;19.306;2022-10-26T00:38:53;6.85;;;5.28;;
47273;SDS011;33007;49.082;19.306;2022-10-26T00:41:21;12.00;;;5.22;;
47273;SDS011;33007;49.082;19.306;2022-10-26T00:43:57;12.38;;;5.40;;
47273;SDS011;33007;49.082;19.306;2022-10-26T00:51:43;10.25;;;5.20;;
47273;SDS011;33007;49.082;19.306;2022-10-26T00:54:14;10.32;;;5.05;;
47273;SDS011;33007;49.082;19.306;2022-10-26T00:56:45;9.60;;;5.10;;
47273;SDS011;33007;49.082;19.306;2022-10-26T00:59:12;8.48;;;4.80;;
47273;SDS011;33007;49.082;19.306;2022-10-26T01:01:40;9.30;;;4.35;;
47273;SDS011;33007;49.082;19.306;2022-10-26T01:04:09;8.90;;;4.38;;
47273;SDS011;33007;49.082;19.306;2022-10-26T01:06:36;7.82;;;4.30;;
47273;SDS011;33007;49.082;19.306;2022-10-26T01:09:03;6.43;;;4.03;;
47273;SDS011;33007;49.082;19.306;2022-10-26T01:11:30;5.63;;;3.50;;
47273;SDS011;33007;49.082;19.306;2022-10-26T01:13:55;9.95;;;3.92;;
47273;SDS011;33007;49.082;19.306;2022-10-26T01:22:40;9.77;;;4.30;;
47273;SDS011;33007;49.082;19.306;2022-10-26T01:35:45;8.05;;;4.10;;
47273;SDS011;33007;49.082;19.306;2022-10-26T01:41:07;9.45;;;3.45;;
47273;SDS011;33007;49.082;19.306;2022-10-26T01:43:35;8.07;;;3.85;;
47273;SDS011;33007;49.082;19.306;2022-10-26T01:46:04;7.82;;;3.90;;
47273;SDS011;33007;49.082;19.306;2022-10-26T01:48:32;9.25;;;4.05;;
47273;SDS011;33007;49.082;19.306;2022-10-26T01:50:59;12.45;;;4.40;;
47273;SDS011;33007;49.082;19.306;2022-10-26T01:53:27;7.88;;;4.53;;
47273;SDS011;33007;49.082;19.306;2022-10-26T01:55:53;8.68;;;5.05;;
47273;SDS011;33007;49.082;19.306;2022-10-26T02:01:37;9.30;;;4.90;;
47273;SDS011;33007;49.082;19.306;2022-10-26T02:12:06;12.35;;;5.57;;
47273;SDS011;33007;49.082;19.306;2022-10-26T02:14:48;13.73;;;6.05;;
47273;SDS011;33007;49.082;19.306;2022-10-26T02:22:27;8.90;;;4.43;;
47273;SDS011;33007;49.082;19.306;2022-10-26T02:24:59;11.25;;;4.53;;
47273;SDS011;33007;49.082;19.306;2022-10-26T02:27:31;16.20;;;4.93;;
47273;SDS011;33007;49.082;19.306;2022-10-26T02:30:00;10.98;;;4.47;;
47273;SDS011;33007;49.082;19.306;2022-10-26T02:32:30;9.02;;;4.70;;
47273;SDS011;33007;49.082;19.306;2022-10-26T02:37:26;10.07;;;5.15;;
47273;SDS011;33007;49.082;19.306;2022-10-26T02:39:54;11.38;;;5.05;;
47273;SDS011;33007;49.082;19.306;2022-10-26T02:42:22;13.98;;;5.50;;
47273;SDS011;33007;49.082;19.306;2022-10-26T02:44:53;10.95;;;4.97;;
47273;SDS011;33007;49.082;19.306;2022-10-26T02:47:22;11.98;;;5.57;;
47273;SDS011;33007;49.082;19.306;2022-10-26T02:49:50;18.20;;;6.10;;
47273;SDS011;33007;49.082;19.306;2022-10-26T02:52:32;18.00;;;6.80;;
47273;SDS011;33007;49.082;19.306;2022-10-26T02:55:17;19.85;;;9.00;;
47273;SDS011;33007;49.082;19.306;2022-10-26T02:57:50;18.23;;;9.57;;
47273;SDS011;33007;49.082;19.306;2022-10-26T03:00:23;20.30;;;9.75;;
47273;SDS011;33007;49.082;19.306;2022-10-26T03:02:50;19.58;;;10.45;;
47273;SDS011;33007;49.082;19.306;2022-10-26T03:05:19;23.08;;;11.88;;
47273;SDS011;33007;49.082;19.306;2022-10-26T03:07:48;19.73;;;12.13;;
47273;SDS011;33007;49.082;19.306;2022-10-26T03:10:14;23.05;;;12.48;;
47273;SDS011;33007;49.082;19.306;2022-10-26T03:12:40;24.88;;;12.70;;
47273;SDS011;33007;49.082;19.306;2022-10-26T03:15:05;26.73;;;12.48;;
47273;SDS011;33007;49.082;19.306;2022-10-26T03:17:31;17.63;;;10.32;;
47273;SDS011;33007;49.082;19.306;2022-10-26T03:19:57;20.52;;;9.60;;
47273;SDS011;33007;49.082;19.306;2022-10-26T03:22:23;17.58;;;8.20;;
47273;SDS011;33007;49.082;19.306;2022-10-26T03:24:48;18.27;;;8.40;;
47273;SDS011;33007;49.082;19.306;2022-10-26T03:27:14;15.18;;;9.23;;
47273;SDS011;33007;49.082;19.306;2022-10-26T03:29:40;16.15;;;9.10;;
47273;SDS011;33007;49.082;19.306;2022-10-26T03:32:05;33.55;;;14.43;;
47273;SDS011;33007;49.082;19.306;2022-10-26T03:34:31;29.02;;;13.98;;
47273;SDS011;33007;49.082;19.306;2022-10-26T03:36:57;78.38;;;24.63;;
47273;SDS011;33007;49.082;19.306;2022-10-26T03:39:23;58.83;;;26.13;;
47273;SDS011;33007;49.082;19.306;2022-10-26T03:41:49;62.78;;;27.73;;
47273;SDS011;33007;49.082;19.306;2022-10-26T03:44:14;40.33;;;22.65;;
47273;SDS011;33007;49.082;19.306;2022-10-26T03:46:40;48.65;;;20.55;;
47273;SDS011;33007;49.082;19.306;2022-10-26T03:49:06;47.42;;;19.55;;
47273;SDS011;33007;49.082;19.306;2022-10-26T03:51:31;99.88;;;19.20;;
47273;SDS011;33007;49.082;19.306;2022-10-26T03:53:57;51.35;;;19.38;;
47273;SDS011;33007;49.082;19.306;2022-10-26T03:56:22;53.15;;;22.77;;
47273;SDS011;33007;49.082;19.306;2022-10-26T03:58:48;62.30;;;20.88;;
47273;SDS011;33007;49.082;19.306;2022-10-26T04:01:14;66.60;;;20.60;;
47273;SDS011;33007;49.082;19.306;2022-10-26T04:03:39;42.97;;;17.83;;
47273;SDS011;33007;49.082;19.306;2022-10-26T04:06:05;53.38;;;14.65;;
47273;SDS011;33007;49.082;19.306;2022-10-26T04:08:31;47.92;;;13.90;;
47273;SDS011;33007;49.082;19.306;2022-10-26T04:10:57;20.00;;;12.05;;
47273;SDS011;33007;49.082;19.306;2022-10-26T04:13:23;45.13;;;12.65;;
47273;SDS011;33007;49.082;19.306;2022-10-26T04:15:48;33.95;;;10.80;;
47273;SDS011;33007;49.082;19.306;2022-10-26T04:18:14;32.30;;;9.52;;
47273;SDS011;33007;49.082;19.306;2022-10-26T04:20:40;46.92;;;9.77;;
47273;SDS011;33007;49.082;19.306;2022-10-26T04:23:09;21.65;;;9.82;;
47273;SDS011;33007;49.082;19.306;2022-10-26T04:25:36;28.53;;;11.67;;
47273;SDS011;33007;49.082;19.306;2022-10-26T04:28:03;28.60;;;15.13;;
47273;SDS011;33007;49.082;19.306;2022-10-26T04:30:30;23.58;;;16.08;;
47273;SDS011;33007;49.082;19.306;2022-10-26T04:32:56;27.98;;;18.35;;
47273;SDS011;33007;49.082;19.306;2022-10-26T04:35:22;37.30;;;18.00;;
47273;SDS011;33007;49.082;19.306;2022-10-26T04:37:48;28.60;;;15.32;;
47273;SDS011;33007;49.082;19.306;2022-10-26T04:40:13;36.58;;;13.43;;
47273;SDS011;33007;49.082;19.306;2022-10-26T04:42:42;19.98;;;11.30;;
47273;SDS011;33007;49.082;19.306;2022-10-26T04:45:12;42.58;;;11.80;;
47273;SDS011;33007;49.082;19.306;2022-10-26T04:47:40;20.20;;;11.02;;
47273;SDS011;33007;49.082;19.306;2022-10-26T04:50:07;22.50;;;10.43;;
47273;SDS011;33007;49.082;19.306;2022-10-26T04:52:34;28.88;;;10.70;;
47273;SDS011;33007;49.082;19.306;2022-10-26T04:55:00;30.92;;;10.70;;
47273;SDS011;33007;49.082;19.306;2022-10-26T04:57:26;34.50;;;10.65;;
47273;SDS011;33007;49.082;19.306;2022-10-26T04:59:51;22.35;;;10.35;;
47273;SDS011;33007;49.082;19.306;2022-10-26T05:02:17;16.75;;;9.10;;
47273;SDS011;33007;49.082;19.306;2022-10-26T05:04:44;16.25;;;9.10;;
47273;SDS011;33007;49.082;19.306;2022-10-26T05:07:10;40.45;;;10.30;;
47273;SDS011;33007;49.082;19.306;2022-10-26T05:09:35;18.45;;;8.65;;
47273;SDS011;33007;49.082;19.306;2022-10-26T05:12:01;16.77;;;8.98;;
47273;SDS011;33007;49.082;19.306;2022-10-26T05:14:27;23.30;;;10.52;;
47273;SDS011;33007;49.082;19.306;2022-10-26T05:16:52;41.53;;;13.88;;
47273;SDS011;33007;49.082;19.306;2022-10-26T05:19:20;48.78;;;14.23;;
47273;SDS011;33007;49.082;19.306;2022-10-26T05:21:48;38.45;;;13.98;;
47273;SDS011;33007;49.082;19.306;2022-10-26T05:24:17;23.77;;;11.30;;
47273;SDS011;33007;49.082;19.306;2022-10-26T05:26:43;17.70;;;10.30;;
47273;SDS011;33007;49.082;19.306;2022-10-26T05:29:08;22.73;;;10.18;;
47273;SDS011;33007;49.082;19.306;2022-10-26T05:31:34;21.25;;;10.43;;
47273;SDS011;33007;49.082;19.306;2022-10-26T05:33:59;28.73;;;11.80;;
47273;SDS011;33007;49.082;19.306;2022-10-26T05:36:25;26.90;;;13.90;;
47273;SDS011;33007;49.082;19.306;2022-10-26T05:38:50;31.67;;;13.85;;
47273;SDS011;33007;49.082;19.306;2022-10-26T05:41:16;44.38;;;14.55;;
47273;SDS011;33007;49.082;19.306;2022-10-26T05:43:41;99.68;;;17.65;;
47273;SDS011;33007;49.082;19.306;2022-10-26T05:46:07;23.42;;;13.02;;
47273;SDS011;33007;49.082;19.306;2022-10-26T05:48:33;27.13;;;14.35;;
47273;SDS011;33007;49.082;19.306;2022-10-26T05:50:59;30.98;;;14.88;;
47273;SDS011;33007;49.082;19.306;2022-10-26T05:53:25;51.97;;;17.00;;
47273;SDS011;33007;49.082;19.306;2022-10-26T05:55:51;63.00;;;18.48;;
47273;SDS011;33007;49.082;19.306;2022-10-26T05:58:18;42.42;;;17.83;;
47273;SDS011;33007;49.082;19.306;2022-10-26T06:06:46;29.40;;;16.38;;
47273;SDS011;33007;49.082;19.306;2022-10-26T06:09:18;36.40;;;13.90;;
47273;SDS011;33007;49.082;19.306;2022-10-26T06:11:43;21.25;;;12.18;;
47273;SDS011;33007;49.082;19.306;2022-10-26T06:14:09;34.00;;;12.90;;
47273;SDS011;33007;49.082;19.306;2022-10-26T06:16:41;26.00;;;11.85;;
47273;SDS011;33007;49.082;19.306;2022-10-26T06:32:26;24.48;;;11.43;;
47273;SDS011;33007;49.082;19.306;2022-10-26T06:34:55;30.77;;;11.82;;
47273;SDS011;33007;49.082;19.306;2022-10-26T06:37:41;28.98;;;12.35;;
47273;SDS011;33007;49.082;19.306;2022-10-26T06:40:09;18.98;;;10.35;;
47273;SDS011;33007;49.082;19.306;2022-10-26T06:42:39;22.55;;;11.52;;
47273;SDS011;33007;49.082;19.306;2022-10-26T06:45:06;20.10;;;9.75;;
47273;SDS011;33007;49.082;19.306;2022-10-26T06:50:45;14.80;;;8.05;;
47273;SDS011;33007;49.082;19.306;2022-10-26T06:53:25;16.15;;;8.20;;
47273;SDS011;33007;49.082;19.306;2022-10-26T06:55:52;11.52;;;8.38;;
47273;SDS011;33007;49.082;19.306;2022-10-26T06:58:19;18.20;;;8.05;;
47273;SDS011;33007;49.082;19.306;2022-10-26T07:00:48;11.57;;;7.63;;
47273;SDS011;33007;49.082;19.306;2022-10-26T07:03:15;18.70;;;9.70;;
47273;SDS011;33007;49.082;19.306;2022-10-26T07:05:41;16.10;;;9.88;;
47273;SDS011;33007;49.082;19.306;2022-10-26T07:08:08;23.65;;;9.60;;
47273;SDS011;33007;49.082;19.306;2022-10-26T07:10:34;12.73;;;8.73;;
47273;SDS011;33007;49.082;19.306;2022-10-26T07:13:03;12.10;;;8.18;;
47273;SDS011;33007;49.082;19.306;2022-10-26T07:15:32;13.38;;;7.90;;
47273;SDS011;33007;49.082;19.306;2022-10-26T07:17:58;17.63;;;8.02;;
47273;SDS011;33007;49.082;19.306;2022-10-26T07:20:24;11.95;;;7.63;;
47273;SDS011;33007;49.082;19.306;2022-10-26T07:22:51;13.35;;;7.00;;
47273;SDS011;33007;49.082;19.306;2022-10-26T07:25:18;8.23;;;5.38;;
47273;SDS011;33007;49.082;19.306;2022-10-26T07:27:44;8.80;;;5.80;;
47273;SDS011;33007;49.082;19.306;2022-10-26T07:30:10;8.35;;;4.63;;
47273;SDS011;33007;49.082;19.306;2022-10-26T07:32:35;9.27;;;4.85;;
47273;SDS011;33007;49.082;19.306;2022-10-26T07:35:01;7.78;;;5.43;;
47273;SDS011;33007;49.082;19.306;2022-10-26T07:37:27;8.35;;;4.90;;
47273;SDS011;33007;49.082;19.306;2022-10-26T07:39:52;7.15;;;5.55;;
47273;SDS011;33007;49.082;19.306;2022-10-26T07:42:18;8.65;;;6.50;;
47273;SDS011;33007;49.082;19.306;2022-10-26T07:44:43;8.00;;;6.78;;
47273;SDS011;33007;49.082;19.306;2022-10-26T07:47:09;7.70;;;5.43;;
47273;SDS011;33007;49.082;19.306;2022-10-26T07:49:34;8.55;;;5.60;;
47273;SDS011;33007;49.082;19.306;2022-10-26T07:52:00;7.15;;;5.15;;
47273;SDS011;33007;49.082;19.306;2022-10-26T07:54:26;8.25;;;6.32;;
47273;SDS011;33007;49.082;19.306;2022-10-26T07:56:51;8.52;;;5.65;;
47273;SDS011;33007;49.082;19.306;2022-10-26T07:59:17;8.85;;;6.45;;
47273;SDS011;33007;49.082;19.306;2022-10-26T08:01:43;7.43;;;5.40;;
47273;SDS011;33007;49.082;19.306;2022-10-26T08:04:09;9.70;;;5.28;;
47273;SDS011;33007;49.082;19.306;2022-10-26T08:06:35;9.35;;;5.75;;
47273;SDS011;33007;49.082;19.306;2022-10-26T08:09:00;9.73;;;6.28;;
47273;SDS011;33007;49.082;19.306;2022-10-26T08:11:26;8.43;;;6.22;;
47273;SDS011;33007;49.082;19.306;2022-10-26T08:13:52;8.32;;;6.72;;
47273;SDS011;33007;49.082;19.306;2022-10-26T08:16:19;9.85;;;6.90;;
47273;SDS011;33007;49.082;19.306;2022-10-26T08:18:48;34.97;;;8.43;;
47273;SDS011;33007;49.082;19.306;2022-10-26T08:21:14;12.00;;;7.95;;
47273;SDS011;33007;49.082;19.306;2022-10-26T08:23:40;12.00;;;8.02;;
47273;SDS011;33007;49.082;19.306;2022-10-26T08:26:06;11.95;;;8.32;;
47273;SDS011;33007;49.082;19.306;2022-10-26T08:28:32;120.63;;;12.80;;
47273;SDS011;33007;49.082;19.306;2022-10-26T08:30:57;10.60;;;8.93;;
47273;SDS011;33007;49.082;19.306;2022-10-26T08:33:23;10.25;;;8.82;;
47273;SDS011;33007;49.082;19.306;2022-10-26T08:35:59;12.70;;;8.85;;
47273;SDS011;33007;49.082;19.306;2022-10-26T08:38:27;13.48;;;9.30;;
47273;SDS011;33007;49.082;19.306;2022-10-26T08:40:53;11.38;;;8.55;;
47273;SDS011;33007;49.082;19.306;2022-10-26T08:43:28;10.55;;;8.23;;
47273;SDS011;33007;49.082;19.306;2022-10-26T08:48:39;12.10;;;9.15;;
47273;SDS011;33007;49.082;19.306;2022-10-26T08:51:27;15.45;;;9.20;;
47273;SDS011;33007;49.082;19.306;2022-10-26T08:54:00;11.90;;;9.43;;
47273;SDS011;33007;49.082;19.306;2022-10-26T08:58:54;19.50;;;11.25;;
47273;SDS011;33007;49.082;19.306;2022-10-26T09:01:23;14.60;;;11.27;;
47273;SDS011;33007;49.082;19.306;2022-10-26T09:03:49;18.05;;;11.20;;
47273;SDS011;33007;49.082;19.306;2022-10-26T09:09:01;17.90;;;10.68;;
47273;SDS011;33007;49.082;19.306;2022-10-26T09:12:18;20.60;;;12.77;;
47273;SDS011;33007;49.082;19.306;2022-10-26T09:14:54;15.68;;;12.25;;
47273;SDS011;33007;49.082;19.306;2022-10-26T09:25:50;21.42;;;14.48;;
47273;SDS011;33007;49.082;19.306;2022-10-26T09:28:25;22.65;;;14.90;;
47273;SDS011;33007;49.082;19.306;2022-10-26T09:30:53;20.90;;;15.57;;
47273;SDS011;33007;49.082;19.306;2022-10-26T09:33:23;24.00;;;15.75;;
47273;SDS011;33007;49.082;19.306;2022-10-26T09:35:51;24.75;;;15.32;;
47273;SDS011;33007;49.082;19.306;2022-10-26T09:49:55;16.55;;;12.05;;
47273;SDS011;33007;49.082;19.306;2022-10-26T09:52:25;17.73;;;12.27;;
47273;SDS011;33007;49.082;19.306;2022-10-26T09:54:51;16.52;;;12.35;;
47273;SDS011;33007;49.082;19.306;2022-10-26T09:57:17;16.45;;;11.73;;
47273;SDS011;33007;49.082;19.306;2022-10-26T09:59:44;14.35;;;10.52;;
47273;SDS011;33007;49.082;19.306;2022-10-26T10:05:00;18.27;;;12.25;;
47273;SDS011;33007;49.082;19.306;2022-10-26T10:07:26;16.27;;;13.25;;
47273;SDS011;33007;49.082;19.306;2022-10-26T10:10:10;17.58;;;12.80;;
47273;SDS011;33007;49.082;19.306;2022-10-26T10:12:40;16.73;;;10.93;;
47273;SDS011;33007;49.082;19.306;2022-10-26T10:15:12;13.70;;;11.07;;
47273;SDS011;33007;49.082;19.306;2022-10-26T10:17:49;14.52;;;10.50;;
47273;SDS011;33007;49.082;19.306;2022-10-26T10:20:20;15.27;;;10.77;;
47273;SDS011;33007;49.082;19.306;2022-10-26T10:22:52;14.38;;;10.55;;
47273;SDS011;33007;49.082;19.306;2022-10-26T10:25:25;15.80;;;9.73;;
47273;SDS011;33007;49.082;19.306;2022-10-26T10:27:52;12.70;;;8.93;;
47273;SDS011;33007;49.082;19.306;2022-10-26T10:30:20;13.07;;;9.20;;
47273;SDS011;33007;49.082;19.306;2022-10-26T10:33:02;12.55;;;8.93;;
47273;SDS011;33007;49.082;19.306;2022-10-26T10:35:29;14.23;;;8.60;;
47273;SDS011;33007;49.082;19.306;2022-10-26T10:37:55;11.73;;;8.13;;
47273;SDS011;33007;49.082;19.306;2022-10-26T10:40:22;14.30;;;8.65;;
47273;SDS011;33007;49.082;19.306;2022-10-26T10:42:50;12.82;;;8.18;;
47273;SDS011;33007;49.082;19.306;2022-10-26T10:45:23;12.68;;;8.30;;
47273;SDS011;33007;49.082;19.306;2022-10-26T10:47:58;11.65;;;8.52;;
47273;SDS011;33007;49.082;19.306;2022-10-26T10:50:27;9.90;;;7.55;;
47273;SDS011;33007;49.082;19.306;2022-10-26T10:53:10;10.40;;;7.85;;
47273;SDS011;33007;49.082;19.306;2022-10-26T10:56:03;14.50;;;8.60;;
47273;SDS011;33007;49.082;19.306;2022-10-26T11:07:43;14.77;;;7.05;;
47273;SDS011;33007;49.082;19.306;2022-10-26T11:10:17;7.35;;;6.03;;
47273;SDS011;33007;49.082;19.306;2022-10-26T11:12:48;9.50;;;6.07;;
47273;SDS011;33007;49.082;19.306;2022-10-26T11:15:21;11.43;;;6.20;;
47273;SDS011;33007;49.082;19.306;2022-10-26T11:20:41;9.57;;;5.85;;
47273;SDS011;33007;49.082;19.306;2022-10-26T11:23:48;10.38;;;5.35;;
47273;SDS011;33007;49.082;19.306;2022-10-26T11:26:19;7.80;;;4.88;;
47273;SDS011;33007;49.082;19.306;2022-10-26T11:31:20;8.90;;;4.72;;
47273;SDS011;33007;49.082;19.306;2022-10-26T11:37:07;7.75;;;4.30;;
47273;SDS011;33007;49.082;19.306;2022-10-26T11:45:22;4.18;;;3.10;;
47273;SDS011;33007;49.082;19.306;2022-10-26T11:48:03;5.97;;;3.60;;
47273;SDS011;33007;49.082;19.306;2022-10-26T11:50:46;8.00;;;3.70;;
47273;SDS011;33007;49.082;19.306;2022-10-26T11:53:18;4.05;;;2.15;;
47273;SDS011;33007;49.082;19.306;2022-10-26T11:55:49;5.18;;;2.88;;
47273;SDS011;33007;49.082;19.306;2022-10-26T11:58:18;7.75;;;2.58;;
47273;SDS011;33007;49.082;19.306;2022-10-26T12:00:51;4.10;;;1.90;;
47273;SDS011;33007;49.082;19.306;2022-10-26T12:03:26;3.65;;;1.92;;
47273;SDS011;33007;49.082;19.306;2022-10-26T12:05:55;3.70;;;1.80;;
47273;SDS011;33007;49.082;19.306;2022-10-26T12:11:08;2.42;;;1.45;;
47273;SDS011;33007;49.082;19.306;2022-10-26T12:21:50;4.55;;;2.10;;
47273;SDS011;33007;49.082;19.306;2022-10-26T12:26:49;4.28;;;2.10;;
47273;SDS011;33007;49.082;19.306;2022-10-26T12:34:57;3.92;;;1.92;;
47273;SDS011;33007;49.082;19.306;2022-10-26T12:37:33;4.53;;;1.77;;
47273;SDS011;33007;49.082;19.306;2022-10-26T12:42:55;6.85;;;2.63;;
47273;SDS011;33007;49.082;19.306;2022-10-26T12:45:22;4.85;;;2.45;;
47273;SDS011;33007;49.082;19.306;2022-10-26T12:52:44;6.25;;;2.38;;
47273;SDS011;33007;49.082;19.306;2022-10-26T12:58:06;5.28;;;2.92;;
47273;SDS011;33007;49.082;19.306;2022-10-26T13:08:46;4.70;;;2.55;;
47273;SDS011;33007;49.082;19.306;2022-10-26T13:11:18;3.67;;;2.47;;
47273;SDS011;33007;49.082;19.306;2022-10-26T13:14:02;5.85;;;3.00;;
47273;SDS011;33007;49.082;19.306;2022-10-26T13:16:30;10.60;;;3.42;;
47273;SDS011;33007;49.082;19.306;2022-10-26T13:19:00;7.95;;;3.15;;
47273;SDS011;33007;49.082;19.306;2022-10-26T13:21:25;6.88;;;3.03;;
47273;SDS011;33007;49.082;19.306;2022-10-26T13:26:20;6.10;;;2.97;;
47273;SDS011;33007;49.082;19.306;2022-10-26T13:33:53;8.98;;;3.58;;
47273;SDS011;33007;49.082;19.306;2022-10-26T13:38:58;9.40;;;3.75;;
47273;SDS011;33007;49.082;19.306;2022-10-26T13:44:05;5.25;;;2.97;;
47273;SDS011;33007;49.082;19.306;2022-10-26T13:46:37;6.50;;;3.20;;
47273;SDS011;33007;49.082;19.306;2022-10-26T13:49:17;4.68;;;2.80;;
47273;SDS011;33007;49.082;19.306;2022-10-26T13:51:48;3.90;;;2.50;;
47273;SDS011;33007;49.082;19.306;2022-10-26T13:54:51;4.90;;;2.20;;
47273;SDS011;33007;49.082;19.306;2022-10-26T13:57:20;5.70;;;2.28;;
47273;SDS011;33007;49.082;19.306;2022-10-26T13:59:52;4.25;;;2.40;;
47273;SDS011;33007;49.082;19.306;2022-10-26T14:04:52;3.80;;;2.40;;
47273;SDS011;33007;49.082;19.306;2022-10-26T14:07:24;2.90;;;2.40;;
47273;SDS011;33007;49.082;19.306;2022-10-26T14:10:01;3.85;;;2.03;;
47273;SDS011;33007;49.082;19.306;2022-10-26T14:12:26;102.03;;;8.25;;
47273;SDS011;33007;49.082;19.306;2022-10-26T14:15:00;25.52;;;4.05;;
47273;SDS011;33007;49.082;19.306;2022-10-26T14:17:29;5.30;;;1.92;;
47273;SDS011;33007;49.082;19.306;2022-10-26T14:19:55;4.38;;;1.92;;
47273;SDS011;33007;49.082;19.306;2022-10-26T14:22:22;10.95;;;2.42;;
47273;SDS011;33007;49.082;19.306;2022-10-26T14:24:53;8.75;;;1.88;;
47273;SDS011;33007;49.082;19.306;2022-10-26T14:27:20;2.97;;;1.92;;
47273;SDS011;33007;49.082;19.306;2022-10-26T14:29:52;4.43;;;1.90;;
47273;SDS011;33007;49.082;19.306;2022-10-26T14:34:44;4.22;;;1.98;;
47273;SDS011;33007;49.082;19.306;2022-10-26T14:37:10;3.53;;;1.98;;
47273;SDS011;33007;49.082;19.306;2022-10-26T14:39:43;3.38;;;2.33;;
47273;SDS011;33007;49.082;19.306;2022-10-26T14:44:40;5.50;;;3.30;;
47273;SDS011;33007;49.082;19.306;2022-10-26T14:47:12;11.10;;;5.50;;
47273;SDS011;33007;49.082;19.306;2022-10-26T14:49:47;9.32;;;5.00;;
47273;SDS011;33007;49.082;19.306;2022-10-26T14:52:14;10.07;;;5.50;;
47273;SDS011;33007;49.082;19.306;2022-10-26T14:55:00;11.90;;;5.80;;
47273;SDS011;33007;49.082;19.306;2022-10-26T14:57:47;14.73;;;6.05;;
47273;SDS011;33007;49.082;19.306;2022-10-26T15:00:17;9.55;;;5.72;;
47273;SDS011;33007;49.082;19.306;2022-10-26T15:02:50;12.73;;;5.88;;
47273;SDS011;33007;49.082;19.306;2022-10-26T15:07:51;11.35;;;5.75;;
47273;SDS011;33007;49.082;19.306;2022-10-26T15:13:38;8.90;;;4.95;;
47273;SDS011;33007;49.082;19.306;2022-10-26T15:15:57;13.30;;;6.40;;
47273;SDS011;33007;49.082;19.306;2022-10-26T15:18:33;15.07;;;5.85;;
47273;SDS011;33007;49.082;19.306;2022-10-26T15:21:00;17.30;;;6.15;;
47273;SDS011;33007;49.082;19.306;2022-10-26T15:23:27;21.10;;;6.30;;
47273;SDS011;33007;49.082;19.306;2022-10-26T15:26:01;12.23;;;5.80;;
47273;SDS011;33007;49.082;19.306;2022-10-26T15:33:29;16.55;;;7.53;;
47273;SDS011;33007;49.082;19.306;2022-10-26T15:38:41;13.63;;;8.05;;
47273;SDS011;33007;49.082;19.306;2022-10-26T15:41:49;13.27;;;7.93;;
47273;SDS011;33007;49.082;19.306;2022-10-26T15:44:02;15.20;;;7.15;;
47273;SDS011;33007;49.082;19.306;2022-10-26T15:46:31;16.63;;;7.20;;
47273;SDS011;33007;49.082;19.306;2022-10-26T15:48:59;13.93;;;7.18;;
47273;SDS011;33007;49.082;19.306;2022-10-26T15:51:27;21.10;;;7.40;;
47273;SDS011;33007;49.082;19.306;2022-10-26T15:53:54;15.02;;;7.72;;
47273;SDS011;33007;49.082;19.306;2022-10-26T15:56:22;13.15;;;8.63;;
47273;SDS011;33007;49.082;19.306;2022-10-26T15:58:49;13.23;;;8.30;;
47273;SDS011;33007;49.082;19.306;2022-10-26T16:01:16;13.00;;;7.80;;
47273;SDS011;33007;49.082;19.306;2022-10-26T16:03:47;18.00;;;8.43;;
47273;SDS011;33007;49.082;19.306;2022-10-26T16:06:14;14.07;;;8.23;;
47273;SDS011;33007;49.082;19.306;2022-10-26T16:09:02;11.63;;;7.93;;
47273;SDS011;33007;49.082;19.306;2022-10-26T16:11:29;15.48;;;8.45;;
47273;SDS011;33007;49.082;19.306;2022-10-26T16:13:55;9.70;;;6.40;;
47273;SDS011;33007;49.082;19.306;2022-10-26T16:16:20;11.88;;;7.05;;
47273;SDS011;33007;49.082;19.306;2022-10-26T16:18:46;8.93;;;6.47;;
47273;SDS011;33007;49.082;19.306;2022-10-26T16:21:17;12.82;;;6.65;;
47273;SDS011;33007;49.082;19.306;2022-10-26T16:23:47;12.45;;;6.35;;
47273;SDS011;33007;49.082;19.306;2022-10-26T16:26:15;12.10;;;6.85;;
47273;SDS011;33007;49.082;19.306;2022-10-26T16:28:41;10.98;;;6.65;;
47273;SDS011;33007;49.082;19.306;2022-10-26T16:31:09;12.02;;;6.82;;
47273;SDS011;33007;49.082;19.306;2022-10-26T16:33:36;16.40;;;9.32;;
47273;SDS011;33007;49.082;19.306;2022-10-26T16:36:02;14.80;;;9.23;;
47273;SDS011;33007;49.082;19.306;2022-10-26T16:38:30;15.70;;;9.15;;
47273;SDS011;33007;49.082;19.306;2022-10-26T16:41:03;20.85;;;9.93;;
47273;SDS011;33007;49.082;19.306;2022-10-26T16:43:31;27.15;;;13.82;;
47273;SDS011;33007;49.082;19.306;2022-10-26T16:45:58;33.42;;;18.02;;
47273;SDS011;33007;49.082;19.306;2022-10-26T16:48:24;49.75;;;22.88;;
47273;SDS011;33007;49.082;19.306;2022-10-26T16:50:50;46.70;;;24.95;;
47273;SDS011;33007;49.082;19.306;2022-10-26T16:53:15;51.22;;;28.67;;
47273;SDS011;33007;49.082;19.306;2022-10-26T16:55:41;51.95;;;29.60;;
47273;SDS011;33007;49.082;19.306;2022-10-26T16:58:08;51.83;;;28.73;;
47273;SDS011;33007;49.082;19.306;2022-10-26T17:00:34;47.38;;;31.83;;
47273;SDS011;33007;49.082;19.306;2022-10-26T17:03:00;58.70;;;35.65;;
47273;SDS011;33007;49.082;19.306;2022-10-26T17:05:27;51.78;;;34.70;;
47273;SDS011;33007;49.082;19.306;2022-10-26T17:07:53;51.60;;;32.50;;
47273;SDS011;33007;49.082;19.306;2022-10-26T17:10:19;51.40;;;31.23;;
47273;SDS011;33007;49.082;19.306;2022-10-26T17:12:44;52.17;;;30.17;;
47273;SDS011;33007;49.082;19.306;2022-10-26T17:15:10;48.42;;;28.55;;
47273;SDS011;33007;49.082;19.306;2022-10-26T17:17:36;47.80;;;27.80;;
47273;SDS011;33007;49.082;19.306;2022-10-26T17:20:02;49.05;;;29.10;;
47273;SDS011;33007;49.082;19.306;2022-10-26T17:22:29;46.13;;;28.10;;
47273;SDS011;33007;49.082;19.306;2022-10-26T17:24:55;47.00;;;28.27;;
47273;SDS011;33007;49.082;19.306;2022-10-26T17:27:20;48.05;;;28.85;;
47273;SDS011;33007;49.082;19.306;2022-10-26T17:29:47;54.33;;;30.23;;
47273;SDS011;33007;49.082;19.306;2022-10-26T17:32:13;48.22;;;28.52;;
47273;SDS011;33007;49.082;19.306;2022-10-26T17:34:40;52.33;;;30.83;;
47273;SDS011;33007;49.082;19.306;2022-10-26T17:37:06;48.35;;;29.20;;
47273;SDS011;33007;49.082;19.306;2022-10-26T17:39:31;47.33;;;29.83;;
47273;SDS011;33007;49.082;19.306;2022-10-26T17:41:57;51.38;;;31.45;;
47273;SDS011;33007;49.082;19.306;2022-10-26T17:44:22;46.20;;;29.13;;